createdAt,value
2017-12-11T00:00:11.591Z,98.49
2017-12-11T00:00:37.706Z,98.68
2017-12-11T00:01:03.847Z,98.58
2017-12-11T00:01:30.004Z,98.68
2017-12-11T00:01:56.111Z,98.68
2017-12-11T00:02:22.245Z,98.3
2017-12-11T00:02:48.401Z,98.49
2017-12-11T00:03:14.515Z,98.35
2017-12-11T00:03:40.634Z,98.77
2017-12-11T00:04:06.749Z,98.58
2017-12-11T00:04:32.860Z,98.49
2017-12-11T00:04:58.979Z,98.86
2017-12-11T00:05:25.090Z,98.77
2017-12-11T00:05:51.207Z,98.01
2017-12-11T00:06:17.320Z,97.87
2017-12-11T00:06:43.430Z,98.06
2017-12-11T00:07:09.556Z,98.2
2017-12-11T00:07:35.667Z,98.35
2017-12-11T00:08:01.773Z,97.49
2017-12-11T00:08:27.885Z,97.73
2017-12-11T00:08:54.021Z,98.11
2017-12-11T00:09:20.132Z,98.3
2017-12-11T00:09:46.248Z,97.82
2017-12-11T00:10:12.391Z,97.73
2017-12-11T00:10:38.500Z,98.3
2017-12-11T00:11:04.614Z,98.11
2017-12-11T00:11:30.735Z,98.01
2017-12-11T00:11:56.846Z,98.3
2017-12-11T00:12:22.959Z,97.63
2017-12-11T00:12:49.095Z,97.54
2017-12-11T00:13:15.205Z,98.01
2017-12-11T00:13:41.316Z,98.25
2017-12-11T00:14:07.433Z,98.06
2017-12-11T00:14:33.544Z,97.78
2017-12-11T00:14:59.664Z,98.35
2017-12-11T00:15:25.801Z,97.59
2017-12-11T00:15:51.912Z,97.68
2017-12-11T00:16:18.024Z,97.21
2017-12-11T00:16:44.141Z,96.92
2017-12-11T00:17:10.251Z,97.3
2017-12-11T00:17:36.385Z,97.59
2017-12-11T00:18:02.504Z,97.59
2017-12-11T00:18:28.615Z,97.11
2017-12-11T00:18:54.753Z,97.4
2017-12-11T00:19:20.864Z,97.49
2017-12-11T00:19:46.998Z,97.3
2017-12-11T00:20:13.113Z,97.59
2017-12-11T00:20:39.226Z,97.49
2017-12-11T00:21:05.340Z,97.59
2017-12-11T00:21:31.454Z,97.78
2017-12-11T00:21:57.569Z,97.11
2017-12-11T00:22:23.681Z,97.4
2017-12-11T00:22:49.816Z,96.73
2017-12-11T00:23:15.935Z,97.21
2017-12-11T00:23:42.049Z,96.55
2017-12-11T00:24:08.162Z,97.11
2017-12-11T00:24:34.292Z,96.55
2017-12-11T00:25:00.412Z,96.64
2017-12-11T00:25:26.524Z,96.73
2017-12-11T00:25:52.640Z,97.02
2017-12-11T00:26:18.751Z,96.83
2017-12-11T00:26:44.867Z,97.02
2017-12-11T00:27:10.975Z,96.36
2017-12-11T00:27:37.086Z,95.98
2017-12-11T00:28:03.201Z,96.07
2017-12-11T00:28:29.316Z,96.83
2017-12-11T00:28:55.428Z,96.73
2017-12-11T00:29:21.566Z,96.64
2017-12-11T00:29:47.674Z,96.64
2017-12-11T00:30:13.795Z,96.73
2017-12-11T00:30:39.904Z,96.83
2017-12-11T00:31:06.017Z,96.17
2017-12-11T00:31:32.150Z,96.26
2017-12-11T00:31:58.260Z,96.17
2017-12-11T00:32:24.376Z,96.64
2017-12-11T00:32:50.491Z,96.12
2017-12-11T00:33:16.603Z,96.26
2017-12-11T00:33:42.716Z,96.92
2017-12-11T00:34:08.848Z,96.36
2017-12-11T00:34:34.960Z,96.92
2017-12-11T00:35:01.074Z,96.88
2017-12-11T00:35:27.212Z,95.83
2017-12-11T00:35:53.327Z,96.55
2017-12-11T00:36:19.443Z,95.98
2017-12-11T00:36:45.560Z,96.02
2017-12-11T00:37:11.672Z,95.83
2017-12-11T00:37:37.786Z,96.31
2017-12-11T00:38:03.898Z,95.79
2017-12-11T00:38:30.013Z,96.21
2017-12-11T00:38:56.131Z,96.12
2017-12-11T00:39:22.246Z,95.98
2017-12-11T00:39:48.360Z,96.07
2017-12-11T00:40:14.487Z,96.26
2017-12-11T00:40:40.602Z,96.17
2017-12-11T00:41:06.743Z,96.45
2017-12-11T00:41:32.856Z,95.88
2017-12-11T00:41:58.967Z,95.79
2017-12-11T00:42:25.079Z,95.88
2017-12-11T00:42:51.196Z,95.74
2017-12-11T00:43:17.313Z,96.17
2017-12-11T00:43:43.423Z,96.21
2017-12-11T00:44:09.536Z,96.07
2017-12-11T00:44:35.675Z,96.07
2017-12-11T00:45:01.795Z,96.36
2017-12-11T00:45:27.907Z,95.79
2017-12-11T00:45:54.015Z,95.98
2017-12-11T00:46:20.134Z,95.03
2017-12-11T00:46:46.266Z,94.98
2017-12-11T00:47:12.384Z,95.69
2017-12-11T00:47:38.494Z,95.6
2017-12-11T00:48:04.608Z,95.41
2017-12-11T00:48:30.726Z,95.69
2017-12-11T00:48:56.841Z,95.22
2017-12-11T00:49:22.963Z,95.31
2017-12-11T00:49:49.075Z,95.22
2017-12-11T00:50:15.191Z,94.93
2017-12-11T00:50:41.310Z,94.93
2017-12-11T00:51:07.429Z,95.31
2017-12-11T00:51:33.540Z,95.12
2017-12-11T00:51:59.657Z,95.5
2017-12-11T00:52:25.765Z,94.93
2017-12-11T00:52:51.886Z,95.12
2017-12-11T00:53:17.999Z,94.74
2017-12-11T00:53:44.109Z,94.46
2017-12-11T00:54:10.218Z,94.18
2017-12-11T00:54:36.385Z,93.7
2017-12-11T00:55:02.452Z,93.89
2017-12-11T00:55:28.561Z,93.8
2017-12-11T00:55:54.676Z,93.42
2017-12-11T00:56:20.788Z,93.7
2017-12-11T00:56:46.902Z,93.42
2017-12-11T00:57:13.015Z,93.7
2017-12-11T00:57:39.131Z,93.61
2017-12-11T00:58:05.252Z,93.99
2017-12-11T00:58:31.372Z,93.23
2017-12-11T00:58:57.480Z,93.13
2017-12-11T00:59:23.604Z,92.76
2017-12-11T00:59:49.716Z,92.85
2017-12-11T01:00:15.835Z,93.04
2017-12-11T01:00:41.950Z,92.38
2017-12-11T01:01:08.081Z,93.04
2017-12-11T01:01:34.200Z,92.47
2017-12-11T01:02:00.315Z,92.47
2017-12-11T01:02:26.426Z,92.94
2017-12-11T01:02:52.541Z,92.94
2017-12-11T01:03:18.656Z,92.57
2017-12-11T01:03:44.769Z,92
2017-12-11T01:04:10.881Z,92.57
2017-12-11T01:04:37.020Z,92.47
2017-12-11T01:05:03.133Z,92.57
2017-12-11T01:05:29.244Z,92.38
2017-12-11T01:05:55.360Z,92.66
2017-12-11T01:06:21.474Z,92.38
2017-12-11T01:06:47.591Z,92.19
2017-12-11T01:07:13.704Z,91.9
2017-12-11T01:07:39.832Z,91.9
2017-12-11T01:08:05.953Z,92.28
2017-12-11T01:08:32.067Z,92.28
2017-12-11T01:08:58.178Z,92.66
2017-12-11T01:09:24.318Z,92.09
2017-12-11T01:09:50.429Z,92
2017-12-11T01:10:16.543Z,91.81
2017-12-11T01:10:42.662Z,92.85
2017-12-11T01:11:08.773Z,92.76
2017-12-11T01:11:34.883Z,92.57
2017-12-11T01:12:01.002Z,92.66
2017-12-11T01:12:27.116Z,92.57
2017-12-11T01:12:53.230Z,92.85
2017-12-11T01:13:19.346Z,92.47
2017-12-11T01:13:45.456Z,92.09
2017-12-11T01:14:11.574Z,92.66
2017-12-11T01:14:37.690Z,92
2017-12-11T01:15:03.800Z,92
2017-12-11T01:15:29.916Z,92.28
2017-12-11T01:15:56.028Z,92.09
2017-12-11T01:16:22.143Z,91.62
2017-12-11T01:16:48.257Z,91.9
2017-12-11T01:17:14.380Z,92.66
2017-12-11T01:17:40.487Z,92.38
2017-12-11T01:18:06.600Z,92.47
2017-12-11T01:18:32.720Z,92
2017-12-11T01:18:58.825Z,92
2017-12-11T01:19:24.939Z,92.57
2017-12-11T01:19:51.062Z,92.66
2017-12-11T01:20:17.172Z,92
2017-12-11T01:20:43.291Z,91.81
2017-12-11T01:21:09.404Z,91.62
2017-12-11T01:21:35.513Z,91.71
2017-12-11T01:22:01.630Z,92.19
2017-12-11T01:22:27.745Z,91.71
2017-12-11T01:22:53.856Z,91.62
2017-12-11T01:23:19.974Z,91.71
2017-12-11T01:23:46.085Z,92.38
2017-12-11T01:24:12.198Z,91.81
2017-12-11T01:24:38.335Z,91.71
2017-12-11T01:25:04.449Z,91.71
2017-12-11T01:25:30.562Z,92.19
2017-12-11T01:25:56.669Z,92
2017-12-11T01:26:22.806Z,92.28
2017-12-11T01:26:48.924Z,91.81
2017-12-11T01:27:15.096Z,92
2017-12-11T01:27:41.146Z,91.81
2017-12-11T01:28:07.285Z,91.81
2017-12-11T01:28:33.401Z,91.62
2017-12-11T01:28:59.509Z,91.9
2017-12-11T01:29:25.630Z,91.43
2017-12-11T01:29:51.742Z,91.33
2017-12-11T01:30:17.856Z,91.43
2017-12-11T01:30:43.969Z,92
2017-12-11T01:31:10.076Z,91.62
2017-12-11T01:31:36.196Z,91.43
2017-12-11T01:32:02.313Z,91.14
2017-12-11T01:32:28.437Z,91.14
2017-12-11T01:32:54.535Z,91.62
2017-12-11T01:33:20.650Z,91.43
2017-12-11T01:33:46.794Z,91.81
2017-12-11T01:34:12.905Z,91.81
2017-12-11T01:34:39.022Z,91.71
2017-12-11T01:35:05.134Z,91.71
2017-12-11T01:35:31.245Z,91.71
2017-12-11T01:35:57.365Z,91.62
2017-12-11T01:36:23.477Z,92
2017-12-11T01:36:49.590Z,91.81
2017-12-11T01:37:15.702Z,92
2017-12-11T01:37:41.869Z,91.9
2017-12-11T01:38:07.927Z,92.38
2017-12-11T01:38:34.045Z,92.47
2017-12-11T01:39:00.156Z,92.66
2017-12-11T01:39:26.275Z,92.38
2017-12-11T01:39:52.410Z,92.19
2017-12-11T01:40:18.519Z,92.28
2017-12-11T01:40:44.635Z,92.28
2017-12-11T01:41:10.749Z,92.19
2017-12-11T01:41:36.866Z,92.47
2017-12-11T01:42:02.968Z,92.57
2017-12-11T01:42:29.082Z,92.47
2017-12-11T01:42:55.220Z,92.66
2017-12-11T01:43:21.339Z,92.38
2017-12-11T01:43:47.454Z,92.38
2017-12-11T01:44:13.568Z,92.57
2017-12-11T01:44:39.702Z,92.38
2017-12-11T01:45:05.818Z,92.09
2017-12-11T01:45:31.927Z,92.09
2017-12-11T01:45:58.044Z,92.38
2017-12-11T01:46:24.157Z,92.09
2017-12-11T01:46:50.267Z,92.09
2017-12-11T01:47:16.386Z,92.28
2017-12-11T01:47:42.505Z,92.47
2017-12-11T01:48:08.618Z,92.66
2017-12-11T01:48:34.734Z,91.71
2017-12-11T01:49:00.845Z,92
2017-12-11T01:49:26.964Z,91.62
2017-12-11T01:49:53.076Z,92.19
2017-12-11T01:50:19.189Z,91.9
2017-12-11T01:50:45.306Z,92
2017-12-11T01:51:11.415Z,92.19
2017-12-11T01:51:37.552Z,92.47
2017-12-11T01:52:03.665Z,92
2017-12-11T01:52:29.783Z,92.57
2017-12-11T01:52:55.897Z,92
2017-12-11T01:53:22.007Z,92.66
2017-12-11T01:53:48.120Z,92.28
2017-12-11T01:54:14.236Z,92.57
2017-12-11T01:54:40.352Z,92.57
2017-12-11T01:55:06.464Z,92.38
2017-12-11T01:55:32.579Z,92.28
2017-12-11T01:55:58.685Z,92.76
2017-12-11T01:56:24.798Z,92.19
2017-12-11T01:56:50.912Z,92.76
2017-12-11T01:57:17.029Z,92
2017-12-11T01:57:43.139Z,92.47
2017-12-11T01:58:09.275Z,92.47
2017-12-11T01:58:35.382Z,92.19
2017-12-11T01:59:01.502Z,92.66
2017-12-11T01:59:27.613Z,92.38
2017-12-11T01:59:53.735Z,91.71
2017-12-11T02:00:19.849Z,92.47
2017-12-11T02:00:45.981Z,91.9
2017-12-11T02:01:12.100Z,92.57
2017-12-11T02:01:38.212Z,91.9
2017-12-11T02:02:04.340Z,92.38
2017-12-11T02:02:30.455Z,92.19
2017-12-11T02:02:56.573Z,92
2017-12-11T02:03:22.688Z,91.9
2017-12-11T02:03:48.798Z,91.9
2017-12-11T02:04:14.916Z,91.81
2017-12-11T02:04:41.032Z,91.62
2017-12-11T02:05:07.146Z,91.24
2017-12-11T02:05:33.263Z,91.33
2017-12-11T02:05:59.400Z,91.24
2017-12-11T02:06:25.518Z,91.33
2017-12-11T02:06:51.636Z,90.86
2017-12-11T02:07:17.746Z,90.86
2017-12-11T02:07:43.857Z,90.95
2017-12-11T02:08:09.977Z,90.95
2017-12-11T02:08:36.090Z,90.86
2017-12-11T02:09:02.204Z,90.39
2017-12-11T02:09:28.321Z,90.39
2017-12-11T02:09:54.432Z,90.1
2017-12-11T02:10:20.542Z,90.1
2017-12-11T02:10:46.659Z,90.1
2017-12-11T02:11:12.770Z,90.1
2017-12-11T02:11:38.889Z,90.39
2017-12-11T02:12:05.003Z,90.39
2017-12-11T02:12:31.114Z,90.29
2017-12-11T02:12:57.233Z,90.01
2017-12-11T02:13:23.343Z,90.48
2017-12-11T02:13:49.462Z,89.91
2017-12-11T02:14:15.571Z,89.82
2017-12-11T02:14:41.683Z,89.72
2017-12-11T02:15:07.802Z,89.82
2017-12-11T02:15:33.914Z,89.91
2017-12-11T02:16:00.028Z,90.1
2017-12-11T02:16:26.142Z,90.01
2017-12-11T02:16:52.276Z,90.2
2017-12-11T02:17:18.386Z,89.91
2017-12-11T02:17:44.505Z,89.63
2017-12-11T02:18:10.622Z,89.82
2017-12-11T02:18:36.735Z,89.34
2017-12-11T02:19:02.848Z,89.06
2017-12-11T02:19:28.964Z,89.44
2017-12-11T02:19:55.078Z,89.06
2017-12-11T02:20:21.195Z,89.25
2017-12-11T02:20:47.331Z,88.68
2017-12-11T02:21:13.440Z,88.68
2017-12-11T02:21:39.559Z,88.59
2017-12-11T02:22:05.672Z,88.21
2017-12-11T02:22:31.789Z,88.4
2017-12-11T02:22:57.897Z,88.96
2017-12-11T02:23:24.009Z,88.59
2017-12-11T02:23:50.130Z,88.3
2017-12-11T02:24:16.238Z,89.15
2017-12-11T02:24:42.356Z,89.06
2017-12-11T02:25:08.471Z,88.68
2017-12-11T02:25:34.586Z,88.68
2017-12-11T02:26:00.775Z,88.3
2017-12-11T02:26:26.880Z,88.21
2017-12-11T02:26:52.991Z,88.3
2017-12-11T02:27:19.109Z,88.78
2017-12-11T02:27:45.218Z,88.68
2017-12-11T02:28:11.336Z,88.87
2017-12-11T02:28:37.455Z,89.15
2017-12-11T02:29:03.565Z,89.34
2017-12-11T02:29:29.683Z,88.87
2017-12-11T02:29:55.797Z,89.15
2017-12-11T02:30:21.934Z,88.68
2017-12-11T02:30:48.085Z,88.68
2017-12-11T02:31:14.200Z,88.59
2017-12-11T02:31:40.309Z,88.4
2017-12-11T02:32:06.435Z,88.78
2017-12-11T02:32:32.538Z,88.87
2017-12-11T02:32:58.654Z,88.49
2017-12-11T02:33:24.763Z,88.3
2017-12-11T02:33:50.903Z,88.4
2017-12-11T02:34:17.012Z,88.49
2017-12-11T02:34:43.129Z,88.11
2017-12-11T02:35:09.242Z,88.21
2017-12-11T02:35:35.353Z,88.3
2017-12-11T02:36:01.467Z,88.3
2017-12-11T02:36:27.604Z,88.59
2017-12-11T02:36:53.716Z,88.02
2017-12-11T02:37:19.836Z,87.73
2017-12-11T02:37:45.948Z,87.54
2017-12-11T02:38:12.070Z,88.02
2017-12-11T02:38:38.179Z,88.02
2017-12-11T02:39:04.310Z,88.21
2017-12-11T02:39:30.424Z,88.02
2017-12-11T02:39:56.537Z,88.3
2017-12-11T02:40:22.650Z,88.02
2017-12-11T02:40:48.760Z,88.02
2017-12-11T02:41:14.899Z,88.21
2017-12-11T02:41:41.011Z,87.92
2017-12-11T02:42:07.121Z,88.02
2017-12-11T02:42:33.243Z,88.3
2017-12-11T02:42:59.349Z,88.4
2017-12-11T02:43:25.462Z,88.21
2017-12-11T02:43:51.583Z,88.59
2017-12-11T02:44:17.691Z,88.02
2017-12-11T02:44:43.810Z,87.73
2017-12-11T02:45:09.926Z,87.64
2017-12-11T02:45:36.043Z,88.21
2017-12-11T02:46:02.157Z,88.11
2017-12-11T02:46:28.273Z,88.02
2017-12-11T02:46:54.382Z,88.11
2017-12-11T02:47:20.526Z,88.11
2017-12-11T02:47:46.646Z,87.92
2017-12-11T02:48:12.760Z,88.3
2017-12-11T02:48:38.890Z,88.4
2017-12-11T02:49:05.000Z,88.4
2017-12-11T02:49:31.115Z,88.3
2017-12-11T02:49:57.231Z,88.11
2017-12-11T02:50:23.358Z,88.4
2017-12-11T02:50:49.480Z,88.02
2017-12-11T02:51:15.598Z,88.02
2017-12-11T02:51:41.707Z,88.3
2017-12-11T02:52:07.823Z,88.02
2017-12-11T02:52:33.933Z,87.26
2017-12-11T02:53:00.054Z,87.92
2017-12-11T02:53:26.160Z,87.54
2017-12-11T02:53:52.312Z,87.35
2017-12-11T02:54:18.424Z,87.45
2017-12-11T02:54:44.533Z,87.45
2017-12-11T02:55:10.672Z,87.45
2017-12-11T02:55:36.789Z,87.64
2017-12-11T02:56:02.898Z,87.45
2017-12-11T02:56:29.011Z,87.16
2017-12-11T02:56:55.127Z,87.54
2017-12-11T02:57:21.262Z,87.45
2017-12-11T02:57:47.379Z,87.16
2017-12-11T02:58:13.491Z,87.16
2017-12-11T02:58:39.611Z,87.35
2017-12-11T02:59:05.727Z,87.54
2017-12-11T02:59:31.836Z,87.45
2017-12-11T02:59:57.956Z,87.54
2017-12-11T03:00:24.088Z,87.64
2017-12-11T03:00:50.200Z,87.64
2017-12-11T03:01:16.314Z,87.16
2017-12-11T03:01:42.425Z,87.73
2017-12-11T03:02:08.562Z,87.64
2017-12-11T03:02:34.658Z,87.64
2017-12-11T03:03:00.767Z,87.16
2017-12-11T03:03:26.888Z,87.16
2017-12-11T03:03:52.998Z,87.73
2017-12-11T03:04:19.108Z,87.54
2017-12-11T03:04:45.226Z,87.35
2017-12-11T03:05:11.344Z,87.16
2017-12-11T03:05:37.457Z,87.35
2017-12-11T03:06:03.569Z,88.02
2017-12-11T03:06:29.680Z,87.73
2017-12-11T03:06:55.794Z,88.02
2017-12-11T03:07:21.912Z,87.35
2017-12-11T03:07:48.034Z,87.92
2017-12-11T03:08:14.140Z,87.35
2017-12-11T03:08:40.257Z,87.54
2017-12-11T03:09:06.368Z,87.35
2017-12-11T03:09:32.484Z,86.98
2017-12-11T03:09:58.594Z,87.07
2017-12-11T03:10:24.716Z,86.79
2017-12-11T03:10:50.832Z,87.16
2017-12-11T03:11:16.945Z,87.07
2017-12-11T03:11:43.052Z,86.98
2017-12-11T03:12:09.171Z,87.16
2017-12-11T03:12:35.281Z,87.16
2017-12-11T03:13:01.435Z,87.45
2017-12-11T03:13:27.548Z,86.6
2017-12-11T03:13:53.669Z,87.16
2017-12-11T03:14:19.775Z,86.79
2017-12-11T03:14:45.888Z,87.26
2017-12-11T03:15:12.004Z,87.16
2017-12-11T03:15:38.122Z,86.98
2017-12-11T03:16:04.283Z,87.45
2017-12-11T03:16:30.348Z,87.73
2017-12-11T03:16:56.454Z,87.83
2017-12-11T03:17:22.567Z,87.92
2017-12-11T03:17:48.684Z,86.98
2017-12-11T03:18:14.803Z,87.26
2017-12-11T03:18:40.921Z,87.73
2017-12-11T03:19:07.036Z,87.45
2017-12-11T03:19:33.149Z,87.73
2017-12-11T03:19:59.264Z,87.54
2017-12-11T03:20:25.373Z,87.54
2017-12-11T03:20:51.509Z,87.45
2017-12-11T03:21:17.622Z,87.73
2017-12-11T03:21:43.735Z,87.64
2017-12-11T03:22:09.848Z,87.73
2017-12-11T03:22:35.963Z,87.64
2017-12-11T03:23:02.096Z,87.73
2017-12-11T03:23:28.215Z,87.83
2017-12-11T03:23:54.332Z,87.26
2017-12-11T03:24:20.440Z,87.45
2017-12-11T03:24:46.555Z,87.35
2017-12-11T03:25:12.668Z,86.98
2017-12-11T03:25:38.784Z,87.26
2017-12-11T03:26:04.898Z,87.16
2017-12-11T03:26:31.017Z,86.98
2017-12-11T03:26:57.133Z,87.83
2017-12-11T03:27:23.242Z,87.35
2017-12-11T03:27:49.360Z,87.54
2017-12-11T03:28:15.471Z,87.54
2017-12-11T03:28:41.578Z,87.45
2017-12-11T03:29:07.715Z,87.54
2017-12-11T03:29:33.826Z,87.16
2017-12-11T03:29:59.945Z,87.92
2017-12-11T03:30:26.055Z,87.73
2017-12-11T03:30:52.194Z,87.83
2017-12-11T03:31:18.329Z,88.02
2017-12-11T03:31:44.440Z,87.45
2017-12-11T03:32:10.557Z,87.35
2017-12-11T03:32:36.688Z,87.92
2017-12-11T03:33:02.804Z,87.83
2017-12-11T03:33:28.937Z,87.35
2017-12-11T03:33:55.054Z,87.54
2017-12-11T03:34:21.163Z,87.26
2017-12-11T03:34:47.295Z,87.26
2017-12-11T03:35:13.414Z,87.54
2017-12-11T03:35:39.525Z,87.45
2017-12-11T03:36:05.638Z,87.16
2017-12-11T03:36:31.754Z,87.26
2017-12-11T03:36:57.863Z,87.26
2017-12-11T03:37:23.981Z,87.73
2017-12-11T03:37:50.141Z,87.35
2017-12-11T03:38:16.253Z,87.35
2017-12-11T03:38:42.381Z,87.35
2017-12-11T03:39:08.501Z,87.16
2017-12-11T03:39:34.609Z,87.07
2017-12-11T03:40:00.724Z,87.16
2017-12-11T03:40:26.839Z,86.6
2017-12-11T03:40:52.950Z,87.26
2017-12-11T03:41:19.069Z,87.07
2017-12-11T03:41:45.176Z,87.16
2017-12-11T03:42:11.292Z,87.31
2017-12-11T03:42:37.426Z,87.26
2017-12-11T03:43:03.563Z,87.54
2017-12-11T03:43:29.688Z,87.35
2017-12-11T03:43:55.802Z,87.16
2017-12-11T03:44:21.914Z,86.79
2017-12-11T03:44:48.030Z,86.98
2017-12-11T03:45:14.186Z,87.16
2017-12-11T03:45:40.256Z,87.35
2017-12-11T03:46:06.369Z,87.45
2017-12-11T03:46:32.486Z,87.35
2017-12-11T03:46:58.624Z,86.31
2017-12-11T03:47:24.727Z,86.88
2017-12-11T03:47:50.848Z,86.31
2017-12-11T03:48:16.957Z,86.88
2017-12-11T03:48:43.070Z,86.69
2017-12-11T03:49:09.188Z,86.88
2017-12-11T03:49:35.301Z,86.6
2017-12-11T03:50:01.419Z,86.41
2017-12-11T03:50:27.538Z,86.22
2017-12-11T03:50:53.648Z,86.5
2017-12-11T03:51:19.766Z,86.41
2017-12-11T03:51:45.874Z,86.41
2017-12-11T03:52:11.985Z,86.22
2017-12-11T03:52:38.123Z,86.22
2017-12-11T03:53:04.261Z,86.31
2017-12-11T03:53:30.374Z,86.31
2017-12-11T03:53:56.485Z,86.31
2017-12-11T03:54:22.604Z,86.41
2017-12-11T03:54:48.740Z,86.12
2017-12-11T03:55:14.850Z,85.93
2017-12-11T03:55:40.967Z,86.03
2017-12-11T03:56:07.080Z,85.93
2017-12-11T03:56:33.195Z,86.41
2017-12-11T03:56:59.306Z,86.31
2017-12-11T03:57:25.425Z,86.12
2017-12-11T03:57:51.538Z,86.12
2017-12-11T03:58:17.652Z,86.41
2017-12-11T03:58:43.769Z,86.12
2017-12-11T03:59:09.886Z,86.12
2017-12-11T03:59:35.993Z,86.31
2017-12-11T04:00:02.111Z,86.41
2017-12-11T04:00:28.237Z,86.41
2017-12-11T04:00:54.350Z,86.6
2017-12-11T04:01:20.469Z,86.41
2017-12-11T04:01:46.595Z,86.03
2017-12-11T04:02:12.726Z,86.41
2017-12-11T04:02:38.861Z,85.36
2017-12-11T04:03:04.976Z,85.74
2017-12-11T04:03:31.089Z,85.74
2017-12-11T04:03:57.204Z,85.55
2017-12-11T04:04:23.323Z,85.55
2017-12-11T04:04:49.437Z,85.55
2017-12-11T04:05:15.548Z,85.74
2017-12-11T04:05:41.665Z,85.74
2017-12-11T04:06:07.771Z,85.55
2017-12-11T04:06:33.894Z,85.74
2017-12-11T04:07:00.010Z,85.55
2017-12-11T04:07:26.113Z,85.74
2017-12-11T04:07:52.233Z,85.55
2017-12-11T04:08:18.346Z,85.55
2017-12-11T04:08:44.459Z,85.17
2017-12-11T04:09:10.578Z,85.17
2017-12-11T04:09:36.687Z,84.8
2017-12-11T04:10:02.802Z,85.36
2017-12-11T04:10:28.914Z,85.55
2017-12-11T04:10:55.028Z,84.99
2017-12-11T04:11:21.142Z,84.99
2017-12-11T04:11:47.261Z,84.99
2017-12-11T04:12:13.373Z,84.99
2017-12-11T04:12:39.490Z,84.8
2017-12-11T04:13:05.628Z,84.8
2017-12-11T04:13:31.740Z,84.61
2017-12-11T04:13:57.856Z,84.42
2017-12-11T04:14:23.968Z,84.61
2017-12-11T04:14:50.084Z,84.89
2017-12-11T04:15:16.195Z,84.99
2017-12-11T04:15:42.306Z,84.99
2017-12-11T04:16:08.425Z,84.99
2017-12-11T04:16:34.552Z,84.89
2017-12-11T04:17:00.672Z,85.08
2017-12-11T04:17:26.785Z,85.13
2017-12-11T04:17:52.899Z,84.94
2017-12-11T04:18:19.016Z,85.03
2017-12-11T04:18:45.126Z,85.22
2017-12-11T04:19:11.241Z,85.03
2017-12-11T04:19:37.356Z,84.55
2017-12-11T04:20:03.466Z,84.46
2017-12-11T04:20:29.582Z,84.65
2017-12-11T04:20:55.716Z,84.8
2017-12-11T04:21:21.828Z,84.32
2017-12-11T04:21:47.940Z,84.42
2017-12-11T04:22:14.056Z,84.55
2017-12-11T04:22:40.173Z,84.65
2017-12-11T04:23:06.311Z,84.51
2017-12-11T04:23:32.420Z,84.51
2017-12-11T04:23:58.543Z,84.89
2017-12-11T04:24:24.656Z,84.94
2017-12-11T04:24:50.774Z,85.13
2017-12-11T04:25:16.903Z,85.13
2017-12-11T04:25:43.014Z,85.6
2017-12-11T04:26:09.127Z,85.31
2017-12-11T04:26:35.248Z,84.84
2017-12-11T04:27:01.354Z,84.94
2017-12-11T04:27:27.469Z,84.65
2017-12-11T04:27:53.583Z,84.74
2017-12-11T04:28:19.701Z,84.65
2017-12-11T04:28:45.820Z,84.65
2017-12-11T04:29:11.932Z,84.46
2017-12-11T04:29:38.047Z,84.08
2017-12-11T04:30:04.159Z,84.55
2017-12-11T04:30:30.277Z,84.74
2017-12-11T04:30:56.387Z,85.13
2017-12-11T04:31:22.498Z,84.55
2017-12-11T04:31:48.613Z,84.36
2017-12-11T04:32:14.744Z,84.17
2017-12-11T04:32:40.844Z,84.08
2017-12-11T04:33:06.958Z,84.46
2017-12-11T04:33:33.078Z,84.08
2017-12-11T04:33:59.206Z,83.8
2017-12-11T04:34:25.326Z,83.7
2017-12-11T04:34:51.437Z,83.8
2017-12-11T04:35:17.557Z,83.8
2017-12-11T04:35:43.684Z,83.61
2017-12-11T04:36:09.802Z,83.23
2017-12-11T04:36:35.917Z,83.23
2017-12-11T04:37:02.025Z,83.23
2017-12-11T04:37:28.161Z,83.42
2017-12-11T04:37:54.252Z,83.32
2017-12-11T04:38:20.373Z,83.13
2017-12-11T04:38:46.481Z,83.23
2017-12-11T04:39:12.600Z,83.42
2017-12-11T04:39:38.714Z,83.23
2017-12-11T04:40:04.830Z,83.23
2017-12-11T04:40:30.960Z,83.51
2017-12-11T04:40:57.083Z,83.61
2017-12-11T04:41:23.207Z,82.85
2017-12-11T04:41:49.325Z,82.66
2017-12-11T04:42:15.437Z,82.85
2017-12-11T04:42:41.548Z,83.32
2017-12-11T04:43:07.667Z,83.23
2017-12-11T04:43:33.774Z,83.51
2017-12-11T04:43:59.886Z,83.61
2017-12-11T04:44:26.004Z,83.61
2017-12-11T04:44:52.111Z,83.23
2017-12-11T04:45:18.271Z,83.13
2017-12-11T04:45:44.403Z,83.7
2017-12-11T04:46:10.516Z,83.42
2017-12-11T04:46:36.636Z,83.32
2017-12-11T04:47:02.746Z,83.61
2017-12-11T04:47:28.864Z,83.51
2017-12-11T04:47:54.984Z,83.42
2017-12-11T04:48:21.096Z,83.51
2017-12-11T04:48:47.229Z,83.42
2017-12-11T04:49:13.340Z,83.42
2017-12-11T04:49:39.478Z,83.04
2017-12-11T04:50:05.595Z,83.23
2017-12-11T04:50:31.710Z,82.85
2017-12-11T04:50:57.841Z,82.75
2017-12-11T04:51:23.960Z,82.75
2017-12-11T04:51:50.072Z,82.85
2017-12-11T04:52:16.189Z,82.85
2017-12-11T04:52:42.306Z,82.85
2017-12-11T04:53:08.422Z,83.61
2017-12-11T04:53:34.527Z,83.23
2017-12-11T04:54:00.643Z,83.23
2017-12-11T04:54:26.758Z,82.85
2017-12-11T04:54:52.870Z,82.94
2017-12-11T04:55:18.981Z,82.66
2017-12-11T04:55:45.095Z,81.81
2017-12-11T04:56:11.211Z,81.71
2017-12-11T04:56:37.323Z,81.71
2017-12-11T04:57:03.442Z,81.52
2017-12-11T04:57:29.558Z,82.09
2017-12-11T04:57:55.668Z,81.52
2017-12-11T04:58:21.787Z,81.71
2017-12-11T04:58:47.933Z,81.52
2017-12-11T04:59:14.009Z,81.62
2017-12-11T04:59:40.124Z,81.43
2017-12-11T05:00:06.238Z,81.62
2017-12-11T05:00:32.357Z,81.71
2017-12-11T05:00:58.467Z,81.81
2017-12-11T05:01:24.583Z,81.52
2017-12-11T05:01:50.701Z,81.33
2017-12-11T05:02:16.812Z,80.38
2017-12-11T05:02:42.923Z,80.67
2017-12-11T05:03:09.042Z,80.48
2017-12-11T05:03:35.153Z,80.1
2017-12-11T05:04:01.269Z,80.95
2017-12-11T05:04:27.389Z,80.67
2017-12-11T05:04:53.498Z,80.67
2017-12-11T05:05:19.619Z,81.33
2017-12-11T05:05:45.732Z,81.33
2017-12-11T05:06:11.850Z,81.43
2017-12-11T05:06:37.964Z,81.52
2017-12-11T05:07:04.074Z,81.57
2017-12-11T05:07:30.190Z,81.81
2017-12-11T05:07:56.304Z,81.52
2017-12-11T05:08:22.417Z,81.52
2017-12-11T05:08:48.528Z,81.71
2017-12-11T05:09:14.643Z,81.81
2017-12-11T05:09:40.760Z,81.71
2017-12-11T05:10:06.869Z,81.62
2017-12-11T05:10:32.990Z,82.47
2017-12-11T05:10:59.104Z,81.71
2017-12-11T05:11:25.216Z,82.18
2017-12-11T05:11:51.332Z,81.9
2017-12-11T05:12:17.443Z,81.62
2017-12-11T05:12:43.585Z,81.71
2017-12-11T05:13:09.700Z,81.71
2017-12-11T05:13:35.834Z,81.9
2017-12-11T05:14:01.949Z,81.62
2017-12-11T05:14:28.063Z,81.71
2017-12-11T05:14:54.171Z,82.18
2017-12-11T05:15:20.292Z,82.18
2017-12-11T05:15:46.402Z,81.81
2017-12-11T05:16:12.537Z,81.71
2017-12-11T05:16:38.649Z,81.9
2017-12-11T05:17:04.765Z,82.56
2017-12-11T05:17:30.878Z,82.75
2017-12-11T05:17:57.015Z,82.75
2017-12-11T05:18:23.135Z,82.94
2017-12-11T05:18:49.245Z,82.85
2017-12-11T05:19:15.358Z,83.13
2017-12-11T05:19:41.479Z,82.66
2017-12-11T05:20:07.594Z,83.04
2017-12-11T05:20:33.707Z,82.85
2017-12-11T05:20:59.819Z,82.85
2017-12-11T05:21:25.929Z,83.13
2017-12-11T05:21:52.040Z,82.75
2017-12-11T05:22:18.158Z,82.85
2017-12-11T05:22:44.272Z,82.66
2017-12-11T05:23:10.385Z,82.18
2017-12-11T05:23:36.523Z,82.66
2017-12-11T05:24:02.635Z,82.66
2017-12-11T05:24:28.743Z,82.56
2017-12-11T05:24:54.862Z,81.99
2017-12-11T05:25:20.980Z,81.71
2017-12-11T05:25:47.089Z,81.9
2017-12-11T05:26:13.206Z,81.71
2017-12-11T05:26:39.318Z,81.76
2017-12-11T05:27:05.436Z,82.09
2017-12-11T05:27:31.548Z,81.57
2017-12-11T05:27:57.654Z,81.71
2017-12-11T05:28:23.789Z,82.24
2017-12-11T05:28:49.906Z,81.95
2017-12-11T05:29:16.018Z,82.81
2017-12-11T05:29:42.134Z,83.09
2017-12-11T05:30:08.251Z,83.47
2017-12-11T05:30:34.358Z,83.37
2017-12-11T05:31:00.473Z,83.37
2017-12-11T05:31:26.585Z,82.71
2017-12-11T05:31:52.710Z,82.81
2017-12-11T05:32:18.819Z,82.81
2017-12-11T05:32:44.936Z,83.56
2017-12-11T05:33:11.053Z,83.28
2017-12-11T05:33:37.169Z,83.37
2017-12-11T05:34:03.286Z,83.37
2017-12-11T05:34:29.413Z,83.18
2017-12-11T05:34:55.552Z,84.04
2017-12-11T05:35:21.686Z,84.04
2017-12-11T05:35:47.822Z,84.23
2017-12-11T05:36:13.939Z,84.51
2017-12-11T05:36:40.057Z,84.8
2017-12-11T05:37:06.171Z,84.61
2017-12-11T05:37:32.276Z,84.23
2017-12-11T05:37:58.395Z,84.13